sensor_id;sensor_type;location;lat;lon;timestamp;P1;durP1;ratioP1;P2;durP2;ratioP2
21999;SDS011;11164;48.818;2.322;2024-03-23T00:54:14;19.38;;;7.05;;
21999;SDS011;11164;48.818;2.322;2024-03-23T00:56:40;17.80;;;5.88;;
21999;SDS011;11164;48.818;2.322;2024-03-23T00:59:05;18.95;;;5.70;;
21999;SDS011;11164;48.818;2.322;2024-03-23T01:01:30;19.75;;;6.68;;
21999;SDS011;11164;48.818;2.322;2024-03-23T01:03:56;18.15;;;6.10;;
21999;SDS011;11164;48.818;2.322;2024-03-23T01:06:21;17.42;;;5.85;;
21999;SDS011;11164;48.818;2.322;2024-03-23T01:08:46;17.83;;;6.47;;
21999;SDS011;11164;48.818;2.322;2024-03-23T01:11:11;17.60;;;6.57;;
21999;SDS011;11164;48.818;2.322;2024-03-23T01:13:37;18.67;;;6.00;;
21999;SDS011;11164;48.818;2.322;2024-03-23T01:19:24;18.23;;;5.20;;
21999;SDS011;11164;48.818;2.322;2024-03-23T01:21:49;15.18;;;4.57;;
21999;SDS011;11164;48.818;2.322;2024-03-23T01:24:15;16.55;;;5.18;;
21999;SDS011;11164;48.818;2.322;2024-03-23T01:26:40;18.33;;;5.30;;
21999;SDS011;11164;48.818;2.322;2024-03-23T01:29:06;17.70;;;5.45;;
21999;SDS011;11164;48.818;2.322;2024-03-23T01:31:31;17.00;;;5.15;;
21999;SDS011;11164;48.818;2.322;2024-03-23T01:33:57;13.32;;;4.50;;
21999;SDS011;11164;48.818;2.322;2024-03-23T01:36:23;18.52;;;5.28;;
21999;SDS011;11164;48.818;2.322;2024-03-23T01:38:48;16.08;;;5.63;;
21999;SDS011;11164;48.818;2.322;2024-03-23T01:41:14;15.23;;;5.25;;
21999;SDS011;11164;48.818;2.322;2024-03-23T01:43:39;15.23;;;4.65;;
21999;SDS011;11164;48.818;2.322;2024-03-23T01:46:06;18.02;;;5.35;;
21999;SDS011;11164;48.818;2.322;2024-03-23T01:48:31;20.15;;;5.00;;
21999;SDS011;11164;48.818;2.322;2024-03-23T01:50:57;12.80;;;4.20;;
21999;SDS011;11164;48.818;2.322;2024-03-23T01:53:23;14.73;;;4.97;;
21999;SDS011;11164;48.818;2.322;2024-03-23T01:55:49;18.20;;;5.55;;
21999;SDS011;11164;48.818;2.322;2024-03-23T01:58:15;13.80;;;4.28;;
21999;SDS011;11164;48.818;2.322;2024-03-23T02:00:41;15.77;;;4.30;;
21999;SDS011;11164;48.818;2.322;2024-03-23T02:03:22;14.20;;;3.95;;
21999;SDS011;11164;48.818;2.322;2024-03-23T02:05:49;16.25;;;4.43;;
21999;SDS011;11164;48.818;2.322;2024-03-23T02:08:16;17.83;;;4.32;;
21999;SDS011;11164;48.818;2.322;2024-03-23T02:10:42;13.40;;;3.58;;
21999;SDS011;11164;48.818;2.322;2024-03-23T02:13:08;14.63;;;2.85;;
21999;SDS011;11164;48.818;2.322;2024-03-23T02:15:33;15.55;;;3.50;;
21999;SDS011;11164;48.818;2.322;2024-03-23T02:17:59;17.75;;;3.85;;
21999;SDS011;11164;48.818;2.322;2024-03-23T02:20:24;15.43;;;3.65;;
21999;SDS011;11164;48.818;2.322;2024-03-23T02:22:51;17.25;;;3.13;;
21999;SDS011;11164;48.818;2.322;2024-03-23T02:25:17;13.10;;;3.17;;
21999;SDS011;11164;48.818;2.322;2024-03-23T02:27:42;13.93;;;3.10;;
21999;SDS011;11164;48.818;2.322;2024-03-23T02:30:08;13.68;;;3.72;;
21999;SDS011;11164;48.818;2.322;2024-03-23T02:32:33;13.80;;;3.25;;
21999;SDS011;11164;48.818;2.322;2024-03-23T02:34:59;15.30;;;2.95;;
21999;SDS011;11164;48.818;2.322;2024-03-23T02:37:24;13.63;;;3.00;;
21999;SDS011;11164;48.818;2.322;2024-03-23T02:39:49;14.68;;;2.90;;
21999;SDS011;11164;48.818;2.322;2024-03-23T02:42:15;12.68;;;3.35;;
21999;SDS011;11164;48.818;2.322;2024-03-23T02:44:42;11.10;;;2.42;;
21999;SDS011;11164;48.818;2.322;2024-03-23T02:47:08;8.18;;;2.20;;
21999;SDS011;11164;48.818;2.322;2024-03-23T02:49:33;12.10;;;3.22;;
21999;SDS011;11164;48.818;2.322;2024-03-23T02:51:59;14.10;;;2.72;;
21999;SDS011;11164;48.818;2.322;2024-03-23T02:54:24;13.82;;;2.40;;
21999;SDS011;11164;48.818;2.322;2024-03-23T02:56:49;14.07;;;2.78;;
21999;SDS011;11164;48.818;2.322;2024-03-23T02:59:15;17.70;;;2.92;;
21999;SDS011;11164;48.818;2.322;2024-03-23T03:01:40;12.88;;;2.63;;
21999;SDS011;11164;48.818;2.322;2024-03-23T03:04:06;18.15;;;2.70;;
21999;SDS011;11164;48.818;2.322;2024-03-23T03:06:31;19.83;;;2.72;;
21999;SDS011;11164;48.818;2.322;2024-03-23T03:08:57;10.10;;;2.50;;
21999;SDS011;11164;48.818;2.322;2024-03-23T03:11:23;12.35;;;2.30;;
21999;SDS011;11164;48.818;2.322;2024-03-23T03:13:48;13.50;;;2.58;;
21999;SDS011;11164;48.818;2.322;2024-03-23T03:16:13;13.55;;;3.08;;
21999;SDS011;11164;48.818;2.322;2024-03-23T03:18:39;14.32;;;2.83;;
21999;SDS011;11164;48.818;2.322;2024-03-23T03:21:06;10.77;;;2.20;;
21999;SDS011;11164;48.818;2.322;2024-03-23T03:23:35;19.85;;;2.40;;
21999;SDS011;11164;48.818;2.322;2024-03-23T03:26:04;12.38;;;2.15;;
21999;SDS011;11164;48.818;2.322;2024-03-23T03:28:33;19.40;;;2.83;;
21999;SDS011;11164;48.818;2.322;2024-03-23T03:31:01;9.60;;;2.28;;
21999;SDS011;11164;48.818;2.322;2024-03-23T03:33:28;12.77;;;2.50;;
21999;SDS011;11164;48.818;2.322;2024-03-23T03:35:53;11.68;;;2.63;;
21999;SDS011;11164;48.818;2.322;2024-03-23T03:38:19;18.10;;;3.35;;
21999;SDS011;11164;48.818;2.322;2024-03-23T03:40:45;16.67;;;3.85;;
21999;SDS011;11164;48.818;2.322;2024-03-23T03:43:10;12.95;;;2.15;;
21999;SDS011;11164;48.818;2.322;2024-03-23T03:45:35;14.70;;;2.28;;
21999;SDS011;11164;48.818;2.322;2024-03-23T03:48:01;18.50;;;2.40;;
21999;SDS011;11164;48.818;2.322;2024-03-23T03:50:26;12.20;;;2.17;;
21999;SDS011;11164;48.818;2.322;2024-03-23T03:52:51;15.80;;;2.13;;
21999;SDS011;11164;48.818;2.322;2024-03-23T03:55:17;15.40;;;2.42;;
21999;SDS011;11164;48.818;2.322;2024-03-23T03:57:42;12.77;;;2.53;;
21999;SDS011;11164;48.818;2.322;2024-03-23T04:00:07;15.13;;;2.30;;
21999;SDS011;11164;48.818;2.322;2024-03-23T04:02:39;13.25;;;2.72;;
21999;SDS011;11164;48.818;2.322;2024-03-23T04:05:05;12.10;;;2.30;;
21999;SDS011;11164;48.818;2.322;2024-03-23T04:07:31;18.67;;;2.60;;
21999;SDS011;11164;48.818;2.322;2024-03-23T04:09:56;13.32;;;2.65;;
21999;SDS011;11164;48.818;2.322;2024-03-23T04:12:23;13.52;;;2.40;;
21999;SDS011;11164;48.818;2.322;2024-03-23T04:14:49;17.13;;;2.67;;
21999;SDS011;11164;48.818;2.322;2024-03-23T04:17:14;21.73;;;3.05;;
21999;SDS011;11164;48.818;2.322;2024-03-23T04:19:39;14.05;;;2.53;;
21999;SDS011;11164;48.818;2.322;2024-03-23T04:22:06;14.15;;;2.47;;
21999;SDS011;11164;48.818;2.322;2024-03-23T04:24:31;16.38;;;3.10;;
21999;SDS011;11164;48.818;2.322;2024-03-23T04:26:56;15.13;;;3.28;;
21999;SDS011;11164;48.818;2.322;2024-03-23T04:29:22;14.07;;;2.60;;
21999;SDS011;11164;48.818;2.322;2024-03-23T04:31:47;12.82;;;1.88;;
21999;SDS011;11164;48.818;2.322;2024-03-23T04:34:13;17.80;;;2.65;;
21999;SDS011;11164;48.818;2.322;2024-03-23T04:36:38;13.68;;;2.78;;
21999;SDS011;11164;48.818;2.322;2024-03-23T04:39:05;10.43;;;2.33;;
21999;SDS011;11164;48.818;2.322;2024-03-23T04:41:33;16.05;;;2.53;;
21999;SDS011;11164;48.818;2.322;2024-03-23T04:43:58;9.98;;;2.40;;
21999;SDS011;11164;48.818;2.322;2024-03-23T04:46:24;11.98;;;2.28;;
21999;SDS011;11164;48.818;2.322;2024-03-23T04:48:49;12.98;;;1.88;;
21999;SDS011;11164;48.818;2.322;2024-03-23T04:51:21;17.40;;;2.55;;
21999;SDS011;11164;48.818;2.322;2024-03-23T04:53:47;11.38;;;2.30;;
21999;SDS011;11164;48.818;2.322;2024-03-23T04:56:13;13.68;;;2.65;;
21999;SDS011;11164;48.818;2.322;2024-03-23T04:58:39;11.60;;;2.17;;
21999;SDS011;11164;48.818;2.322;2024-03-23T05:01:05;14.65;;;2.53;;
21999;SDS011;11164;48.818;2.322;2024-03-23T05:03:30;13.77;;;2.28;;
21999;SDS011;11164;48.818;2.322;2024-03-23T05:05:56;10.27;;;1.98;;
21999;SDS011;11164;48.818;2.322;2024-03-23T05:08:21;11.75;;;2.10;;
21999;SDS011;11164;48.818;2.322;2024-03-23T05:10:46;14.93;;;2.10;;
21999;SDS011;11164;48.818;2.322;2024-03-23T05:13:12;12.32;;;2.10;;
21999;SDS011;11164;48.818;2.322;2024-03-23T05:15:37;10.20;;;2.25;;
21999;SDS011;11164;48.818;2.322;2024-03-23T05:18:03;15.45;;;2.28;;
21999;SDS011;11164;48.818;2.322;2024-03-23T05:20:30;11.07;;;2.17;;
21999;SDS011;11164;48.818;2.322;2024-03-23T05:22:55;10.38;;;2.15;;
21999;SDS011;11164;48.818;2.322;2024-03-23T05:25:21;10.85;;;2.05;;
21999;SDS011;11164;48.818;2.322;2024-03-23T05:27:46;5.07;;;1.50;;
21999;SDS011;11164;48.818;2.322;2024-03-23T05:30:12;9.38;;;1.83;;
21999;SDS011;11164;48.818;2.322;2024-03-23T05:32:38;7.40;;;1.70;;
21999;SDS011;11164;48.818;2.322;2024-03-23T05:35:06;11.48;;;1.88;;
21999;SDS011;11164;48.818;2.322;2024-03-23T05:37:32;8.32;;;1.55;;
21999;SDS011;11164;48.818;2.322;2024-03-23T05:39:59;11.48;;;2.00;;
21999;SDS011;11164;48.818;2.322;2024-03-23T05:42:24;9.63;;;1.30;;
21999;SDS011;11164;48.818;2.322;2024-03-23T05:44:50;5.25;;;1.20;;
21999;SDS011;11164;48.818;2.322;2024-03-23T05:47:15;9.32;;;1.33;;
21999;SDS011;11164;48.818;2.322;2024-03-23T05:49:41;5.03;;;1.10;;
21999;SDS011;11164;48.818;2.322;2024-03-23T05:52:11;10.43;;;1.52;;
21999;SDS011;11164;48.818;2.322;2024-03-23T05:54:36;11.32;;;1.52;;
21999;SDS011;11164;48.818;2.322;2024-03-23T05:57:02;6.40;;;0.93;;
21999;SDS011;11164;48.818;2.322;2024-03-23T05:59:27;3.97;;;1.02;;
21999;SDS011;11164;48.818;2.322;2024-03-23T06:01:53;2.60;;;0.90;;
21999;SDS011;11164;48.818;2.322;2024-03-23T06:04:18;5.22;;;1.10;;
21999;SDS011;11164;48.818;2.322;2024-03-23T06:06:44;4.50;;;1.05;;
21999;SDS011;11164;48.818;2.322;2024-03-23T06:09:10;5.63;;;1.10;;
21999;SDS011;11164;48.818;2.322;2024-03-23T06:11:35;5.72;;;1.15;;
21999;SDS011;11164;48.818;2.322;2024-03-23T06:14:01;5.28;;;0.75;;
21999;SDS011;11164;48.818;2.322;2024-03-23T06:16:26;6.93;;;1.58;;
21999;SDS011;11164;48.818;2.322;2024-03-23T06:18:52;6.03;;;1.38;;
21999;SDS011;11164;48.818;2.322;2024-03-23T06:21:18;4.10;;;1.05;;
21999;SDS011;11164;48.818;2.322;2024-03-23T06:23:44;9.00;;;1.27;;
21999;SDS011;11164;48.818;2.322;2024-03-23T06:26:19;6.43;;;1.15;;
21999;SDS011;11164;48.818;2.322;2024-03-23T06:28:46;5.63;;;1.13;;
21999;SDS011;11164;48.818;2.322;2024-03-23T06:31:12;4.28;;;0.85;;
21999;SDS011;11164;48.818;2.322;2024-03-23T06:33:37;8.25;;;1.30;;
21999;SDS011;11164;48.818;2.322;2024-03-23T06:36:04;4.68;;;1.30;;
21999;SDS011;11164;48.818;2.322;2024-03-23T06:38:30;4.05;;;1.25;;
21999;SDS011;11164;48.818;2.322;2024-03-23T06:40:56;6.32;;;1.13;;
21999;SDS011;11164;48.818;2.322;2024-03-23T06:43:21;8.10;;;1.20;;
21999;SDS011;11164;48.818;2.322;2024-03-23T06:45:56;6.82;;;1.20;;
21999;SDS011;11164;48.818;2.322;2024-03-23T06:48:21;7.10;;;1.23;;
21999;SDS011;11164;48.818;2.322;2024-03-23T06:50:47;6.50;;;1.30;;
21999;SDS011;11164;48.818;2.322;2024-03-23T06:53:13;7.85;;;1.38;;
21999;SDS011;11164;48.818;2.322;2024-03-23T06:55:39;7.63;;;1.40;;
21999;SDS011;11164;48.818;2.322;2024-03-23T06:58:04;6.95;;;1.35;;
21999;SDS011;11164;48.818;2.322;2024-03-23T07:00:30;10.43;;;1.80;;
21999;SDS011;11164;48.818;2.322;2024-03-23T07:02:57;7.32;;;1.65;;
21999;SDS011;11164;48.818;2.322;2024-03-23T07:05:22;7.97;;;1.10;;
21999;SDS011;11164;48.818;2.322;2024-03-23T07:07:47;8.13;;;1.45;;
21999;SDS011;11164;48.818;2.322;2024-03-23T07:10:13;9.90;;;1.50;;
21999;SDS011;11164;48.818;2.322;2024-03-23T07:12:38;10.07;;;1.52;;
21999;SDS011;11164;48.818;2.322;2024-03-23T07:15:04;9.63;;;1.50;;
21999;SDS011;11164;48.818;2.322;2024-03-23T07:17:29;7.68;;;0.98;;
21999;SDS011;11164;48.818;2.322;2024-03-23T07:19:55;3.25;;;0.82;;
21999;SDS011;11164;48.818;2.322;2024-03-23T07:22:20;2.17;;;0.80;;
21999;SDS011;11164;48.818;2.322;2024-03-23T07:24:45;2.92;;;0.80;;
21999;SDS011;11164;48.818;2.322;2024-03-23T07:27:11;3.20;;;0.80;;
21999;SDS011;11164;48.818;2.322;2024-03-23T07:29:36;3.95;;;0.77;;
21999;SDS011;11164;48.818;2.322;2024-03-23T07:32:01;5.93;;;0.80;;
21999;SDS011;11164;48.818;2.322;2024-03-23T07:34:27;4.93;;;1.10;;
21999;SDS011;11164;48.818;2.322;2024-03-23T07:36:52;9.18;;;1.50;;
21999;SDS011;11164;48.818;2.322;2024-03-23T07:39:18;7.40;;;1.40;;
21999;SDS011;11164;48.818;2.322;2024-03-23T07:41:46;9.25;;;1.67;;
21999;SDS011;11164;48.818;2.322;2024-03-23T07:44:11;7.60;;;1.20;;
21999;SDS011;11164;48.818;2.322;2024-03-23T07:46:37;7.63;;;1.38;;
21999;SDS011;11164;48.818;2.322;2024-03-23T07:49:04;9.00;;;1.73;;
21999;SDS011;11164;48.818;2.322;2024-03-23T07:51:29;5.43;;;1.52;;
21999;SDS011;11164;48.818;2.322;2024-03-23T07:53:55;10.35;;;1.30;;
21999;SDS011;11164;48.818;2.322;2024-03-23T07:56:20;6.57;;;1.63;;
21999;SDS011;11164;48.818;2.322;2024-03-23T07:58:46;8.52;;;1.50;;
21999;SDS011;11164;48.818;2.322;2024-03-23T08:01:13;6.72;;;1.70;;
21999;SDS011;11164;48.818;2.322;2024-03-23T08:03:41;9.00;;;1.75;;
21999;SDS011;11164;48.818;2.322;2024-03-23T08:06:11;7.25;;;1.33;;
21999;SDS011;11164;48.818;2.322;2024-03-23T08:08:39;7.40;;;1.42;;
21999;SDS011;11164;48.818;2.322;2024-03-23T08:11:07;4.15;;;0.95;;
21999;SDS011;11164;48.818;2.322;2024-03-23T08:13:36;6.50;;;1.42;;
21999;SDS011;11164;48.818;2.322;2024-03-23T08:16:03;6.78;;;1.10;;
21999;SDS011;11164;48.818;2.322;2024-03-23T08:18:29;4.68;;;1.05;;
21999;SDS011;11164;48.818;2.322;2024-03-23T08:23:32;7.50;;;1.20;;
21999;SDS011;11164;48.818;2.322;2024-03-23T08:25:59;6.60;;;1.10;;
21999;SDS011;11164;48.818;2.322;2024-03-23T08:28:25;8.60;;;1.25;;
21999;SDS011;11164;48.818;2.322;2024-03-23T08:30:50;5.40;;;1.00;;
21999;SDS011;11164;48.818;2.322;2024-03-23T08:33:16;6.38;;;1.50;;
21999;SDS011;11164;48.818;2.322;2024-03-23T08:35:42;5.80;;;1.35;;
21999;SDS011;11164;48.818;2.322;2024-03-23T08:38:07;6.55;;;1.30;;
21999;SDS011;11164;48.818;2.322;2024-03-23T08:40:33;3.95;;;0.90;;
21999;SDS011;11164;48.818;2.322;2024-03-23T08:42:58;5.97;;;1.17;;
21999;SDS011;11164;48.818;2.322;2024-03-23T08:45:26;7.03;;;1.77;;
21999;SDS011;11164;48.818;2.322;2024-03-23T08:47:52;8.57;;;1.45;;
21999;SDS011;11164;48.818;2.322;2024-03-23T08:50:17;2.97;;;0.85;;
21999;SDS011;11164;48.818;2.322;2024-03-23T08:52:43;6.82;;;1.45;;
21999;SDS011;11164;48.818;2.322;2024-03-23T08:55:09;9.60;;;1.48;;
21999;SDS011;11164;48.818;2.322;2024-03-23T08:57:35;5.15;;;1.20;;
21999;SDS011;11164;48.818;2.322;2024-03-23T09:00:00;9.63;;;1.38;;
21999;SDS011;11164;48.818;2.322;2024-03-23T09:02:25;6.00;;;1.15;;
21999;SDS011;11164;48.818;2.322;2024-03-23T09:04:51;3.85;;;1.13;;
21999;SDS011;11164;48.818;2.322;2024-03-23T09:07:16;6.85;;;1.10;;
21999;SDS011;11164;48.818;2.322;2024-03-23T09:09:41;7.60;;;1.15;;
21999;SDS011;11164;48.818;2.322;2024-03-23T09:12:07;9.43;;;1.67;;
21999;SDS011;11164;48.818;2.322;2024-03-23T09:14:33;6.50;;;1.00;;
21999;SDS011;11164;48.818;2.322;2024-03-23T09:16:59;5.18;;;1.10;;
21999;SDS011;11164;48.818;2.322;2024-03-23T09:19:26;5.95;;;1.05;;
21999;SDS011;11164;48.818;2.322;2024-03-23T09:21:53;7.57;;;1.17;;
21999;SDS011;11164;48.818;2.322;2024-03-23T09:24:18;6.15;;;0.93;;
21999;SDS011;11164;48.818;2.322;2024-03-23T09:26:44;4.45;;;1.20;;
21999;SDS011;11164;48.818;2.322;2024-03-23T09:29:09;9.77;;;1.15;;
21999;SDS011;11164;48.818;2.322;2024-03-23T09:31:34;7.18;;;1.80;;
21999;SDS011;11164;48.818;2.322;2024-03-23T09:34:00;4.03;;;0.90;;
21999;SDS011;11164;48.818;2.322;2024-03-23T09:36:25;4.65;;;1.20;;
21999;SDS011;11164;48.818;2.322;2024-03-23T09:38:50;3.97;;;0.88;;
21999;SDS011;11164;48.818;2.322;2024-03-23T09:41:16;5.07;;;0.90;;
21999;SDS011;11164;48.818;2.322;2024-03-23T09:43:41;3.92;;;0.80;;
21999;SDS011;11164;48.818;2.322;2024-03-23T09:46:07;7.18;;;1.20;;
21999;SDS011;11164;48.818;2.322;2024-03-23T09:48:33;3.70;;;0.85;;
21999;SDS011;11164;48.818;2.322;2024-03-23T09:50:58;5.22;;;1.10;;
21999;SDS011;11164;48.818;2.322;2024-03-23T09:53:24;4.95;;;1.20;;
21999;SDS011;11164;48.818;2.322;2024-03-23T09:55:49;5.13;;;1.00;;
21999;SDS011;11164;48.818;2.322;2024-03-23T09:58:16;5.43;;;1.00;;
21999;SDS011;11164;48.818;2.322;2024-03-23T10:00:43;8.00;;;1.30;;
21999;SDS011;11164;48.818;2.322;2024-03-23T10:03:08;6.10;;;1.05;;
21999;SDS011;11164;48.818;2.322;2024-03-23T10:05:36;4.03;;;0.75;;
21999;SDS011;11164;48.818;2.322;2024-03-23T10:10:43;5.25;;;1.02;;
21999;SDS011;11164;48.818;2.322;2024-03-23T10:13:09;4.70;;;1.00;;
21999;SDS011;11164;48.818;2.322;2024-03-23T10:15:35;6.38;;;1.55;;
21999;SDS011;11164;48.818;2.322;2024-03-23T10:18:19;6.97;;;1.33;;
21999;SDS011;11164;48.818;2.322;2024-03-23T10:21:18;7.47;;;1.30;;
21999;SDS011;11164;48.818;2.322;2024-03-23T10:23:40;5.20;;;1.10;;
21999;SDS011;11164;48.818;2.322;2024-03-23T10:26:16;6.53;;;1.35;;
21999;SDS011;11164;48.818;2.322;2024-03-23T10:28:58;8.43;;;1.77;;
21999;SDS011;11164;48.818;2.322;2024-03-23T10:31:33;3.60;;;1.02;;
21999;SDS011;11164;48.818;2.322;2024-03-23T10:34:00;5.43;;;1.67;;
21999;SDS011;11164;48.818;2.322;2024-03-23T10:36:28;8.32;;;1.50;;
21999;SDS011;11164;48.818;2.322;2024-03-23T10:38:55;6.80;;;1.38;;
21999;SDS011;11164;48.818;2.322;2024-03-23T10:41:21;7.45;;;1.33;;
21999;SDS011;11164;48.818;2.322;2024-03-23T10:43:47;8.43;;;1.23;;
21999;SDS011;11164;48.818;2.322;2024-03-23T10:46:14;8.93;;;1.35;;
21999;SDS011;11164;48.818;2.322;2024-03-23T10:48:40;8.43;;;1.40;;
21999;SDS011;11164;48.818;2.322;2024-03-23T10:51:06;6.13;;;1.00;;
21999;SDS011;11164;48.818;2.322;2024-03-23T10:53:33;2.83;;;0.70;;
21999;SDS011;11164;48.818;2.322;2024-03-23T10:55:59;5.63;;;1.20;;
21999;SDS011;11164;48.818;2.322;2024-03-23T10:58:36;3.83;;;0.90;;
21999;SDS011;11164;48.818;2.322;2024-03-23T11:01:04;5.97;;;1.40;;
21999;SDS011;11164;48.818;2.322;2024-03-23T11:03:33;5.72;;;1.33;;
21999;SDS011;11164;48.818;2.322;2024-03-23T11:06:01;4.43;;;0.90;;
21999;SDS011;11164;48.818;2.322;2024-03-23T11:08:38;6.15;;;1.20;;
21999;SDS011;11164;48.818;2.322;2024-03-23T11:22:03;5.45;;;0.90;;
21999;SDS011;11164;48.818;2.322;2024-03-23T11:24:33;4.38;;;1.50;;
21999;SDS011;11164;48.818;2.322;2024-03-23T11:26:59;4.53;;;1.10;;
21999;SDS011;11164;48.818;2.322;2024-03-23T11:29:26;3.30;;;0.90;;
21999;SDS011;11164;48.818;2.322;2024-03-23T11:31:52;6.70;;;1.20;;
21999;SDS011;11164;48.818;2.322;2024-03-23T11:34:19;6.85;;;0.73;;
21999;SDS011;11164;48.818;2.322;2024-03-23T11:36:45;6.35;;;0.93;;
21999;SDS011;11164;48.818;2.322;2024-03-23T11:39:18;3.72;;;0.90;;
21999;SDS011;11164;48.818;2.322;2024-03-23T11:41:56;3.97;;;1.10;;
21999;SDS011;11164;48.818;2.322;2024-03-23T11:44:24;16.50;;;6.10;;
21999;SDS011;11164;48.818;2.322;2024-03-23T11:46:51;24.98;;;8.20;;
21999;SDS011;11164;48.818;2.322;2024-03-23T11:49:26;6.57;;;1.38;;
21999;SDS011;11164;48.818;2.322;2024-03-23T11:51:53;8.35;;;1.35;;
21999;SDS011;11164;48.818;2.322;2024-03-23T11:54:20;5.20;;;1.10;;
21999;SDS011;11164;48.818;2.322;2024-03-23T11:57:00;5.68;;;1.15;;
21999;SDS011;11164;48.818;2.322;2024-03-23T11:59:38;7.95;;;1.58;;
21999;SDS011;11164;48.818;2.322;2024-03-23T12:02:12;3.55;;;0.75;;
21999;SDS011;11164;48.818;2.322;2024-03-23T12:04:40;8.75;;;1.45;;
21999;SDS011;11164;48.818;2.322;2024-03-23T12:07:18;3.00;;;1.00;;
21999;SDS011;11164;48.818;2.322;2024-03-23T12:10:03;5.28;;;1.00;;
21999;SDS011;11164;48.818;2.322;2024-03-23T12:12:29;5.20;;;1.02;;
21999;SDS011;11164;48.818;2.322;2024-03-23T12:15:01;3.83;;;1.20;;
21999;SDS011;11164;48.818;2.322;2024-03-23T12:17:29;6.13;;;1.30;;
21999;SDS011;11164;48.818;2.322;2024-03-23T12:19:54;7.38;;;1.83;;
21999;SDS011;11164;48.818;2.322;2024-03-23T12:22:22;4.90;;;0.85;;
21999;SDS011;11164;48.818;2.322;2024-03-23T12:24:49;5.10;;;1.05;;
21999;SDS011;11164;48.818;2.322;2024-03-23T12:27:15;5.05;;;1.25;;
21999;SDS011;11164;48.818;2.322;2024-03-23T12:29:40;2.58;;;0.80;;
21999;SDS011;11164;48.818;2.322;2024-03-23T12:32:12;6.45;;;0.80;;
21999;SDS011;11164;48.818;2.322;2024-03-23T12:34:38;4.50;;;0.80;;
21999;SDS011;11164;48.818;2.322;2024-03-23T12:37:03;3.50;;;0.70;;
21999;SDS011;11164;48.818;2.322;2024-03-23T12:39:31;3.83;;;0.80;;
21999;SDS011;11164;48.818;2.322;2024-03-23T12:41:56;3.63;;;0.75;;
21999;SDS011;11164;48.818;2.322;2024-03-23T12:44:21;5.63;;;0.98;;
21999;SDS011;11164;48.818;2.322;2024-03-23T12:46:47;3.58;;;0.93;;
21999;SDS011;11164;48.818;2.322;2024-03-23T12:49:12;3.45;;;1.10;;
21999;SDS011;11164;48.818;2.322;2024-03-23T12:51:38;4.70;;;1.25;;
21999;SDS011;11164;48.818;2.322;2024-03-23T12:54:04;4.20;;;1.77;;
21999;SDS011;11164;48.818;2.322;2024-03-23T12:56:29;4.55;;;1.27;;
21999;SDS011;11164;48.818;2.322;2024-03-23T12:58:55;5.25;;;1.13;;
21999;SDS011;11164;48.818;2.322;2024-03-23T13:01:25;3.88;;;1.27;;
21999;SDS011;11164;48.818;2.322;2024-03-23T13:03:51;7.55;;;1.13;;
21999;SDS011;11164;48.818;2.322;2024-03-23T13:06:16;6.15;;;1.00;;
21999;SDS011;11164;48.818;2.322;2024-03-23T13:08:46;3.58;;;0.80;;
21999;SDS011;11164;48.818;2.322;2024-03-23T13:11:11;6.13;;;1.00;;
21999;SDS011;11164;48.818;2.322;2024-03-23T13:13:38;6.32;;;0.95;;
21999;SDS011;11164;48.818;2.322;2024-03-23T13:16:03;5.90;;;1.10;;
21999;SDS011;11164;48.818;2.322;2024-03-23T13:18:30;5.40;;;1.50;;
21999;SDS011;11164;48.818;2.322;2024-03-23T13:20:56;3.45;;;0.82;;
21999;SDS011;11164;48.818;2.322;2024-03-23T13:23:22;4.38;;;1.35;;
21999;SDS011;11164;48.818;2.322;2024-03-23T13:25:54;5.00;;;1.20;;
21999;SDS011;11164;48.818;2.322;2024-03-23T13:28:21;5.97;;;1.60;;
21999;SDS011;11164;48.818;2.322;2024-03-23T13:30:54;6.50;;;1.25;;
21999;SDS011;11164;48.818;2.322;2024-03-23T13:33:20;4.10;;;1.05;;
21999;SDS011;11164;48.818;2.322;2024-03-23T13:35:52;6.40;;;1.20;;
21999;SDS011;11164;48.818;2.322;2024-03-23T13:38:18;3.45;;;1.08;;
21999;SDS011;11164;48.818;2.322;2024-03-23T13:43:14;4.05;;;1.23;;
21999;SDS011;11164;48.818;2.322;2024-03-23T13:45:40;4.78;;;1.10;;
21999;SDS011;11164;48.818;2.322;2024-03-23T13:48:05;2.90;;;0.90;;
21999;SDS011;11164;48.818;2.322;2024-03-23T13:50:31;4.70;;;1.08;;
21999;SDS011;11164;48.818;2.322;2024-03-23T13:52:56;3.00;;;1.13;;
21999;SDS011;11164;48.818;2.322;2024-03-23T13:55:22;3.90;;;1.00;;
21999;SDS011;11164;48.818;2.322;2024-03-23T13:57:48;3.97;;;1.80;;
21999;SDS011;11164;48.818;2.322;2024-03-23T14:00:13;4.93;;;0.80;;
21999;SDS011;11164;48.818;2.322;2024-03-23T14:02:39;2.17;;;0.65;;
21999;SDS011;11164;48.818;2.322;2024-03-23T14:05:05;4.35;;;2.15;;
21999;SDS011;11164;48.818;2.322;2024-03-23T14:07:31;6.32;;;1.92;;
21999;SDS011;11164;48.818;2.322;2024-03-23T14:09:56;6.43;;;1.50;;
21999;SDS011;11164;48.818;2.322;2024-03-23T14:12:27;5.97;;;2.85;;
21999;SDS011;11164;48.818;2.322;2024-03-23T14:14:52;4.75;;;1.40;;
21999;SDS011;11164;48.818;2.322;2024-03-23T14:17:18;6.88;;;2.40;;
21999;SDS011;11164;48.818;2.322;2024-03-23T14:19:44;4.85;;;1.02;;
21999;SDS011;11164;48.818;2.322;2024-03-23T14:22:09;2.53;;;0.70;;
21999;SDS011;11164;48.818;2.322;2024-03-23T14:24:35;2.60;;;0.70;;
21999;SDS011;11164;48.818;2.322;2024-03-23T14:27:00;3.88;;;1.33;;
21999;SDS011;11164;48.818;2.322;2024-03-23T14:29:29;1.63;;;0.55;;
21999;SDS011;11164;48.818;2.322;2024-03-23T14:31:55;5.43;;;1.80;;
21999;SDS011;11164;48.818;2.322;2024-03-23T14:34:20;3.03;;;0.70;;
21999;SDS011;11164;48.818;2.322;2024-03-23T14:36:46;3.33;;;0.70;;
21999;SDS011;11164;48.818;2.322;2024-03-23T14:39:11;3.05;;;0.70;;
21999;SDS011;11164;48.818;2.322;2024-03-23T14:41:37;4.00;;;1.17;;
21999;SDS011;11164;48.818;2.322;2024-03-23T14:44:03;3.50;;;1.02;;
21999;SDS011;11164;48.818;2.322;2024-03-23T14:46:28;2.95;;;0.70;;
21999;SDS011;11164;48.818;2.322;2024-03-23T14:48:54;3.78;;;0.90;;
21999;SDS011;11164;48.818;2.322;2024-03-23T14:51:20;6.93;;;1.25;;
21999;SDS011;11164;48.818;2.322;2024-03-23T14:53:47;3.47;;;1.17;;
21999;SDS011;11164;48.818;2.322;2024-03-23T14:56:13;3.75;;;0.82;;
21999;SDS011;11164;48.818;2.322;2024-03-23T14:58:41;5.65;;;0.90;;
21999;SDS011;11164;48.818;2.322;2024-03-23T15:01:07;8.23;;;1.63;;
21999;SDS011;11164;48.818;2.322;2024-03-23T15:03:39;7.20;;;1.25;;
21999;SDS011;11164;48.818;2.322;2024-03-23T15:06:05;5.63;;;2.45;;
21999;SDS011;11164;48.818;2.322;2024-03-23T15:08:31;3.78;;;1.00;;
21999;SDS011;11164;48.818;2.322;2024-03-23T15:11:00;3.90;;;1.33;;
21999;SDS011;11164;48.818;2.322;2024-03-23T15:13:30;5.18;;;1.30;;
21999;SDS011;11164;48.818;2.322;2024-03-23T15:15:56;4.18;;;0.98;;
21999;SDS011;11164;48.818;2.322;2024-03-23T15:18:21;4.00;;;0.82;;
21999;SDS011;11164;48.818;2.322;2024-03-23T15:20:55;5.90;;;1.30;;
21999;SDS011;11164;48.818;2.322;2024-03-23T15:23:22;5.00;;;1.20;;
21999;SDS011;11164;48.818;2.322;2024-03-23T15:26:00;5.13;;;1.50;;
21999;SDS011;11164;48.818;2.322;2024-03-23T15:28:27;5.88;;;1.55;;
21999;SDS011;11164;48.818;2.322;2024-03-23T15:31:12;5.85;;;1.50;;
21999;SDS011;11164;48.818;2.322;2024-03-23T15:33:37;7.93;;;3.08;;
21999;SDS011;11164;48.818;2.322;2024-03-23T15:36:04;5.72;;;1.98;;
21999;SDS011;11164;48.818;2.322;2024-03-23T15:38:33;4.97;;;1.10;;
21999;SDS011;11164;48.818;2.322;2024-03-23T15:40:59;8.73;;;3.72;;
21999;SDS011;11164;48.818;2.322;2024-03-23T15:43:24;4.60;;;1.00;;
21999;SDS011;11164;48.818;2.322;2024-03-23T15:45:54;6.70;;;1.00;;
21999;SDS011;11164;48.818;2.322;2024-03-23T15:48:20;3.53;;;0.70;;
21999;SDS011;11164;48.818;2.322;2024-03-23T15:50:56;6.40;;;1.10;;
21999;SDS011;11164;48.818;2.322;2024-03-23T15:53:23;4.43;;;0.95;;
21999;SDS011;11164;48.818;2.322;2024-03-23T15:55:55;5.90;;;1.20;;